sensor_id;sensor_type;location;lat;lon;timestamp;P1;durP1;ratioP1;P2;durP2;ratioP2
51292;SDS011;37377;45.186;9.778;2023-05-07T00:01:44;48.67;;;39.20;;
51292;SDS011;37377;45.186;9.778;2023-05-07T00:04:14;45.90;;;38.47;;
51292;SDS011;37377;45.186;9.778;2023-05-07T00:06:41;47.20;;;38.65;;
51292;SDS011;37377;45.186;9.778;2023-05-07T00:09:11;43.10;;;38.45;;
51292;SDS011;37377;45.186;9.778;2023-05-07T00:11:42;43.47;;;38.80;;
51292;SDS011;37377;45.186;9.778;2023-05-07T00:14:23;43.40;;;38.75;;
51292;SDS011;37377;45.186;9.778;2023-05-07T00:16:50;42.55;;;37.70;;
51292;SDS011;37377;45.186;9.778;2023-05-07T00:19:23;45.97;;;38.90;;
51292;SDS011;37377;45.186;9.778;2023-05-07T00:21:53;43.55;;;38.85;;
51292;SDS011;37377;45.186;9.778;2023-05-07T00:24:21;44.60;;;39.90;;
51292;SDS011;37377;45.186;9.778;2023-05-07T00:26:48;44.35;;;39.60;;
51292;SDS011;37377;45.186;9.778;2023-05-07T00:29:16;43.22;;;38.90;;
51292;SDS011;37377;45.186;9.778;2023-05-07T00:31:49;43.88;;;38.83;;
51292;SDS011;37377;45.186;9.778;2023-05-07T00:34:51;45.58;;;39.85;;
51292;SDS011;37377;45.186;9.778;2023-05-07T00:37:22;45.92;;;39.03;;
51292;SDS011;37377;45.186;9.778;2023-05-07T00:39:53;42.28;;;37.97;;
51292;SDS011;37377;45.186;9.778;2023-05-07T00:42:24;42.60;;;37.97;;
51292;SDS011;37377;45.186;9.778;2023-05-07T00:44:58;42.83;;;38.45;;
51292;SDS011;37377;45.186;9.778;2023-05-07T00:47:30;43.17;;;38.80;;
51292;SDS011;37377;45.186;9.778;2023-05-07T00:50:00;84.13;;;42.40;;
51292;SDS011;37377;45.186;9.778;2023-05-07T00:52:27;40.97;;;36.20;;
51292;SDS011;37377;45.186;9.778;2023-05-07T00:54:55;50.13;;;40.03;;
51292;SDS011;37377;45.186;9.778;2023-05-07T00:58:02;47.30;;;39.08;;
51292;SDS011;37377;45.186;9.778;2023-05-07T01:00:34;44.58;;;39.88;;
51292;SDS011;37377;45.186;9.778;2023-05-07T01:03:03;45.92;;;40.78;;
51292;SDS011;37377;45.186;9.778;2023-05-07T01:05:46;47.13;;;41.95;;
51292;SDS011;37377;45.186;9.778;2023-05-07T01:08:19;45.50;;;40.97;;
51292;SDS011;37377;45.186;9.778;2023-05-07T01:10:47;47.38;;;42.38;;
51292;SDS011;37377;45.186;9.778;2023-05-07T01:13:26;48.45;;;42.83;;
51292;SDS011;37377;45.186;9.778;2023-05-07T01:15:56;46.85;;;41.88;;
51292;SDS011;37377;45.186;9.778;2023-05-07T01:18:31;47.35;;;42.40;;
51292;SDS011;37377;45.186;9.778;2023-05-07T01:21:01;47.33;;;42.42;;
51292;SDS011;37377;45.186;9.778;2023-05-07T01:23:34;47.67;;;42.00;;
51292;SDS011;37377;45.186;9.778;2023-05-07T01:26:45;46.95;;;41.83;;
51292;SDS011;37377;45.186;9.778;2023-05-07T01:29:15;56.78;;;44.55;;
51292;SDS011;37377;45.186;9.778;2023-05-07T01:31:44;48.70;;;43.58;;
51292;SDS011;37377;45.186;9.778;2023-05-07T01:34:12;51.75;;;44.33;;
51292;SDS011;37377;45.186;9.778;2023-05-07T01:36:42;50.10;;;42.00;;
51292;SDS011;37377;45.186;9.778;2023-05-07T01:39:10;50.03;;;43.85;;
51292;SDS011;37377;45.186;9.778;2023-05-07T01:41:37;51.65;;;42.67;;
51292;SDS011;37377;45.186;9.778;2023-05-07T01:44:04;46.00;;;41.10;;
51292;SDS011;37377;45.186;9.778;2023-05-07T01:46:32;48.97;;;43.42;;
51292;SDS011;37377;45.186;9.778;2023-05-07T01:49:02;45.97;;;41.03;;
51292;SDS011;37377;45.186;9.778;2023-05-07T01:51:30;44.85;;;40.42;;
51292;SDS011;37377;45.186;9.778;2023-05-07T01:53:58;50.58;;;40.53;;
51292;SDS011;37377;45.186;9.778;2023-05-07T01:56:25;47.67;;;41.30;;
51292;SDS011;37377;45.186;9.778;2023-05-07T01:58:52;50.22;;;41.75;;
51292;SDS011;37377;45.186;9.778;2023-05-07T02:01:20;48.05;;;42.78;;
51292;SDS011;37377;45.186;9.778;2023-05-07T02:03:51;48.08;;;41.58;;
51292;SDS011;37377;45.186;9.778;2023-05-07T02:06:22;48.42;;;43.17;;
51292;SDS011;37377;45.186;9.778;2023-05-07T02:08:53;54.63;;;44.40;;
51292;SDS011;37377;45.186;9.778;2023-05-07T02:11:21;49.97;;;44.30;;
51292;SDS011;37377;45.186;9.778;2023-05-07T02:13:48;51.33;;;43.78;;
51292;SDS011;37377;45.186;9.778;2023-05-07T02:16:19;48.95;;;43.30;;
51292;SDS011;37377;45.186;9.778;2023-05-07T02:18:47;46.20;;;41.55;;
51292;SDS011;37377;45.186;9.778;2023-05-07T02:21:15;46.20;;;40.65;;
51292;SDS011;37377;45.186;9.778;2023-05-07T02:23:48;50.78;;;41.28;;
51292;SDS011;37377;45.186;9.778;2023-05-07T02:26:20;50.17;;;43.78;;
51292;SDS011;37377;45.186;9.778;2023-05-07T02:28:48;45.38;;;40.20;;
51292;SDS011;37377;45.186;9.778;2023-05-07T02:31:15;48.17;;;42.65;;
51292;SDS011;37377;45.186;9.778;2023-05-07T02:33:45;49.45;;;43.03;;
51292;SDS011;37377;45.186;9.778;2023-05-07T02:36:17;49.90;;;42.42;;
51292;SDS011;37377;45.186;9.778;2023-05-07T02:43:52;56.28;;;44.28;;
51292;SDS011;37377;45.186;9.778;2023-05-07T02:48:34;48.42;;;41.55;;
51292;SDS011;37377;45.186;9.778;2023-05-07T02:52:32;52.75;;;44.00;;
51292;SDS011;37377;45.186;9.778;2023-05-07T02:54:59;50.70;;;43.03;;
51292;SDS011;37377;45.186;9.778;2023-05-07T02:57:31;49.53;;;44.00;;
51292;SDS011;37377;45.186;9.778;2023-05-07T03:00:09;51.50;;;44.03;;
51292;SDS011;37377;45.186;9.778;2023-05-07T03:02:47;47.97;;;42.97;;
51292;SDS011;37377;45.186;9.778;2023-05-07T03:05:18;57.95;;;42.20;;
51292;SDS011;37377;45.186;9.778;2023-05-07T03:08:10;50.88;;;43.47;;
51292;SDS011;37377;45.186;9.778;2023-05-07T03:10:44;49.17;;;42.55;;
51292;SDS011;37377;45.186;9.778;2023-05-07T03:13:15;50.40;;;42.83;;
51292;SDS011;37377;45.186;9.778;2023-05-07T03:15:43;49.13;;;43.75;;
51292;SDS011;37377;45.186;9.778;2023-05-07T03:18:11;52.63;;;42.30;;
51292;SDS011;37377;45.186;9.778;2023-05-07T03:20:45;48.08;;;42.28;;
51292;SDS011;37377;45.186;9.778;2023-05-07T03:23:21;54.22;;;44.92;;
51292;SDS011;37377;45.186;9.778;2023-05-07T03:25:54;41.92;;;37.17;;
51292;SDS011;37377;45.186;9.778;2023-05-07T03:28:21;45.30;;;37.35;;
51292;SDS011;37377;45.186;9.778;2023-05-07T03:30:54;34.80;;;31.05;;
51292;SDS011;37377;45.186;9.778;2023-05-07T03:33:29;32.95;;;29.50;;
51292;SDS011;37377;45.186;9.778;2023-05-07T03:35:58;31.52;;;28.23;;
51292;SDS011;37377;45.186;9.778;2023-05-07T03:38:30;37.53;;;29.63;;
51292;SDS011;37377;45.186;9.778;2023-05-07T03:41:00;33.83;;;27.38;;
51292;SDS011;37377;45.186;9.778;2023-05-07T03:43:28;31.30;;;25.33;;
51292;SDS011;37377;45.186;9.778;2023-05-07T03:46:02;30.40;;;24.75;;
51292;SDS011;37377;45.186;9.778;2023-05-07T03:48:32;29.88;;;25.98;;
51292;SDS011;37377;45.186;9.778;2023-05-07T03:51:05;27.55;;;24.63;;
51292;SDS011;37377;45.186;9.778;2023-05-07T03:53:37;26.05;;;23.55;;
51292;SDS011;37377;45.186;9.778;2023-05-07T03:56:04;24.10;;;21.65;;
51292;SDS011;37377;45.186;9.778;2023-05-07T03:58:38;21.05;;;19.15;;
51292;SDS011;37377;45.186;9.778;2023-05-07T04:01:10;22.00;;;18.27;;
51292;SDS011;37377;45.186;9.778;2023-05-07T04:03:37;25.23;;;20.00;;
51292;SDS011;37377;45.186;9.778;2023-05-07T04:06:07;21.20;;;19.10;;
51292;SDS011;37377;45.186;9.778;2023-05-07T04:08:45;18.63;;;16.85;;
51292;SDS011;37377;45.186;9.778;2023-05-07T04:11:18;17.70;;;15.97;;
51292;SDS011;37377;45.186;9.778;2023-05-07T04:13:46;17.23;;;15.40;;
51292;SDS011;37377;45.186;9.778;2023-05-07T04:16:18;18.20;;;16.50;;
51292;SDS011;37377;45.186;9.778;2023-05-07T04:18:46;22.27;;;16.85;;
51292;SDS011;37377;45.186;9.778;2023-05-07T04:21:17;24.02;;;15.93;;
51292;SDS011;37377;45.186;9.778;2023-05-07T04:23:48;17.42;;;14.68;;
51292;SDS011;37377;45.186;9.778;2023-05-07T04:27:10;15.77;;;14.37;;
51292;SDS011;37377;45.186;9.778;2023-05-07T04:29:38;20.80;;;17.88;;
51292;SDS011;37377;45.186;9.778;2023-05-07T04:32:11;22.63;;;19.23;;
51292;SDS011;37377;45.186;9.778;2023-05-07T04:34:43;20.48;;;18.25;;
51292;SDS011;37377;45.186;9.778;2023-05-07T04:37:46;18.77;;;16.92;;
51292;SDS011;37377;45.186;9.778;2023-05-07T04:40:19;23.48;;;19.15;;
51292;SDS011;37377;45.186;9.778;2023-05-07T04:42:47;19.58;;;17.17;;
51292;SDS011;37377;45.186;9.778;2023-05-07T04:45:17;16.65;;;14.02;;
51292;SDS011;37377;45.186;9.778;2023-05-07T04:47:52;12.77;;;11.55;;
51292;SDS011;37377;45.186;9.778;2023-05-07T04:50:20;12.07;;;10.80;;
51292;SDS011;37377;45.186;9.778;2023-05-07T04:52:55;9.20;;;8.32;;
51292;SDS011;37377;45.186;9.778;2023-05-07T04:55:23;7.90;;;7.20;;
51292;SDS011;37377;45.186;9.778;2023-05-07T04:58:03;11.23;;;7.65;;
51292;SDS011;37377;45.186;9.778;2023-05-07T05:00:34;13.52;;;7.35;;
51292;SDS011;37377;45.186;9.778;2023-05-07T05:03:05;8.00;;;6.53;;
51292;SDS011;37377;45.186;9.778;2023-05-07T05:05:34;5.15;;;4.63;;
51292;SDS011;37377;45.186;9.778;2023-05-07T05:08:07;5.78;;;3.95;;
51292;SDS011;37377;45.186;9.778;2023-05-07T05:19:17;5.60;;;2.80;;
51292;SDS011;37377;45.186;9.778;2023-05-07T05:21:48;4.05;;;2.50;;
51292;SDS011;37377;45.186;9.778;2023-05-07T05:24:16;3.58;;;2.30;;
51292;SDS011;37377;45.186;9.778;2023-05-07T05:26:43;3.80;;;2.42;;
51292;SDS011;37377;45.186;9.778;2023-05-07T05:29:10;3.17;;;2.67;;
51292;SDS011;37377;45.186;9.778;2023-05-07T05:31:40;4.38;;;2.10;;
51292;SDS011;37377;45.186;9.778;2023-05-07T05:34:09;7.63;;;1.80;;
51292;SDS011;37377;45.186;9.778;2023-05-07T05:36:36;2.38;;;1.75;;
51292;SDS011;37377;45.186;9.778;2023-05-07T05:39:03;5.97;;;2.03;;
51292;SDS011;37377;45.186;9.778;2023-05-07T05:41:30;6.07;;;2.90;;
51292;SDS011;37377;45.186;9.778;2023-05-07T05:44:00;4.80;;;2.15;;
51292;SDS011;37377;45.186;9.778;2023-05-07T05:46:31;7.47;;;2.38;;
51292;SDS011;37377;45.186;9.778;2023-05-07T05:49:00;3.80;;;2.92;;
51292;SDS011;37377;45.186;9.778;2023-05-07T05:51:30;9.68;;;2.92;;
51292;SDS011;37377;45.186;9.778;2023-05-07T05:53:57;4.80;;;3.35;;
51292;SDS011;37377;45.186;9.778;2023-05-07T05:56:25;16.42;;;2.88;;
51292;SDS011;37377;45.186;9.778;2023-05-07T05:59:22;4.90;;;2.10;;
51292;SDS011;37377;45.186;9.778;2023-05-07T06:02:32;3.63;;;2.95;;
51292;SDS011;37377;45.186;9.778;2023-05-07T06:05:03;5.07;;;3.70;;
51292;SDS011;37377;45.186;9.778;2023-05-07T06:07:30;6.35;;;3.13;;
51292;SDS011;37377;45.186;9.778;2023-05-07T06:09:58;3.83;;;3.47;;
51292;SDS011;37377;45.186;9.778;2023-05-07T06:12:25;4.32;;;3.42;;
51292;SDS011;37377;45.186;9.778;2023-05-07T06:14:52;6.30;;;3.00;;
51292;SDS011;37377;45.186;9.778;2023-05-07T06:17:20;5.32;;;3.03;;
51292;SDS011;37377;45.186;9.778;2023-05-07T06:19:56;7.30;;;2.83;;
51292;SDS011;37377;45.186;9.778;2023-05-07T06:22:23;5.72;;;4.88;;
51292;SDS011;37377;45.186;9.778;2023-05-07T06:24:50;7.60;;;7.00;;
51292;SDS011;37377;45.186;9.778;2023-05-07T06:27:17;7.45;;;6.75;;
51292;SDS011;37377;45.186;9.778;2023-05-07T06:29:44;9.00;;;7.90;;
51292;SDS011;37377;45.186;9.778;2023-05-07T06:32:14;11.88;;;7.88;;
51292;SDS011;37377;45.186;9.778;2023-05-07T06:34:43;13.52;;;8.82;;
51292;SDS011;37377;45.186;9.778;2023-05-07T06:37:10;12.20;;;8.07;;
51292;SDS011;37377;45.186;9.778;2023-05-07T06:40:06;11.32;;;10.23;;
51292;SDS011;37377;45.186;9.778;2023-05-07T06:42:36;13.43;;;10.23;;
51292;SDS011;37377;45.186;9.778;2023-05-07T06:45:21;8.82;;;7.78;;
51292;SDS011;37377;45.186;9.778;2023-05-07T06:47:48;17.10;;;8.27;;
51292;SDS011;37377;45.186;9.778;2023-05-07T06:50:15;7.70;;;7.00;;
51292;SDS011;37377;45.186;9.778;2023-05-07T06:52:43;7.82;;;7.07;;
51292;SDS011;37377;45.186;9.778;2023-05-07T06:55:10;7.97;;;7.18;;
51292;SDS011;37377;45.186;9.778;2023-05-07T06:57:38;7.85;;;5.05;;
51292;SDS011;37377;45.186;9.778;2023-05-07T07:00:05;6.63;;;5.78;;
51292;SDS011;37377;45.186;9.778;2023-05-07T07:02:44;8.80;;;5.93;;
51292;SDS011;37377;45.186;9.778;2023-05-07T07:05:13;8.02;;;6.97;;
51292;SDS011;37377;45.186;9.778;2023-05-07T07:07:40;7.75;;;6.63;;
51292;SDS011;37377;45.186;9.778;2023-05-07T07:10:09;7.68;;;6.80;;
51292;SDS011;37377;45.186;9.778;2023-05-07T07:12:36;9.90;;;6.25;;
51292;SDS011;37377;45.186;9.778;2023-05-07T07:15:03;8.50;;;5.25;;
51292;SDS011;37377;45.186;9.778;2023-05-07T07:17:31;7.70;;;5.03;;
51292;SDS011;37377;45.186;9.778;2023-05-07T07:19:57;9.80;;;5.30;;
51292;SDS011;37377;45.186;9.778;2023-05-07T07:22:24;6.28;;;5.70;;
51292;SDS011;37377;45.186;9.778;2023-05-07T07:24:51;6.07;;;5.28;;
51292;SDS011;37377;45.186;9.778;2023-05-07T07:27:18;7.95;;;5.75;;
51292;SDS011;37377;45.186;9.778;2023-05-07T07:29:45;10.43;;;5.90;;
51292;SDS011;37377;45.186;9.778;2023-05-07T07:32:11;6.63;;;5.22;;
51292;SDS011;37377;45.186;9.778;2023-05-07T07:34:39;6.70;;;6.07;;
51292;SDS011;37377;45.186;9.778;2023-05-07T07:37:06;5.43;;;4.93;;
51292;SDS011;37377;45.186;9.778;2023-05-07T07:39:35;7.20;;;5.53;;
51292;SDS011;37377;45.186;9.778;2023-05-07T07:42:05;11.05;;;5.00;;
51292;SDS011;37377;45.186;9.778;2023-05-07T07:44:32;6.95;;;4.60;;
51292;SDS011;37377;45.186;9.778;2023-05-07T07:47:04;5.55;;;3.63;;
51292;SDS011;37377;45.186;9.778;2023-05-07T07:49:32;6.25;;;3.45;;
51292;SDS011;37377;45.186;9.778;2023-05-07T07:52:02;6.10;;;2.78;;
51292;SDS011;37377;45.186;9.778;2023-05-07T07:54:31;4.43;;;2.50;;
51292;SDS011;37377;45.186;9.778;2023-05-07T07:56:58;3.08;;;2.13;;
51292;SDS011;37377;45.186;9.778;2023-05-07T07:59:25;4.40;;;2.72;;
51292;SDS011;37377;45.186;9.778;2023-05-07T08:01:53;4.50;;;2.08;;
51292;SDS011;37377;45.186;9.778;2023-05-07T08:04:23;3.55;;;2.67;;
51292;SDS011;37377;45.186;9.778;2023-05-07T08:06:51;8.13;;;2.85;;
51292;SDS011;37377;45.186;9.778;2023-05-07T08:09:20;5.85;;;2.70;;
51292;SDS011;37377;45.186;9.778;2023-05-07T08:11:48;7.25;;;3.75;;
51292;SDS011;37377;45.186;9.778;2023-05-07T08:14:15;5.28;;;2.83;;
51292;SDS011;37377;45.186;9.778;2023-05-07T08:16:45;4.85;;;3.28;;
51292;SDS011;37377;45.186;9.778;2023-05-07T08:19:12;7.78;;;4.70;;
51292;SDS011;37377;45.186;9.778;2023-05-07T08:21:40;9.50;;;3.13;;
51292;SDS011;37377;45.186;9.778;2023-05-07T08:24:10;4.63;;;2.72;;
51292;SDS011;37377;45.186;9.778;2023-05-07T08:26:40;2.88;;;2.35;;
51292;SDS011;37377;45.186;9.778;2023-05-07T08:29:10;4.78;;;2.00;;
51292;SDS011;37377;45.186;9.778;2023-05-07T08:31:42;11.57;;;2.80;;
51292;SDS011;37377;45.186;9.778;2023-05-07T08:34:15;8.20;;;1.60;;
51292;SDS011;37377;45.186;9.778;2023-05-07T08:36:51;8.70;;;2.00;;
51292;SDS011;37377;45.186;9.778;2023-05-07T08:39:29;3.67;;;1.90;;
51292;SDS011;37377;45.186;9.778;2023-05-07T08:42:07;5.45;;;2.42;;
51292;SDS011;37377;45.186;9.778;2023-05-07T08:44:36;7.32;;;1.88;;
51292;SDS011;37377;45.186;9.778;2023-05-07T08:47:08;4.40;;;1.27;;
51292;SDS011;37377;45.186;9.778;2023-05-07T08:49:36;5.38;;;1.52;;
51292;SDS011;37377;45.186;9.778;2023-05-07T08:52:06;2.58;;;1.33;;
51292;SDS011;37377;45.186;9.778;2023-05-07T08:57:09;8.88;;;2.55;;
51292;SDS011;37377;45.186;9.778;2023-05-07T08:59:37;3.22;;;1.40;;
51292;SDS011;37377;45.186;9.778;2023-05-07T09:02:05;4.78;;;1.50;;
51292;SDS011;37377;45.186;9.778;2023-05-07T09:04:35;3.78;;;1.63;;
51292;SDS011;37377;45.186;9.778;2023-05-07T09:07:02;4.13;;;2.10;;
51292;SDS011;37377;45.186;9.778;2023-05-07T09:09:35;2.10;;;1.40;;
51292;SDS011;37377;45.186;9.778;2023-05-07T09:12:03;10.82;;;1.58;;
51292;SDS011;37377;45.186;9.778;2023-05-07T09:14:32;1.77;;;1.25;;
51292;SDS011;37377;45.186;9.778;2023-05-07T09:17:01;4.20;;;1.40;;
51292;SDS011;37377;45.186;9.778;2023-05-07T09:19:28;4.97;;;2.10;;
51292;SDS011;37377;45.186;9.778;2023-05-07T09:22:03;6.93;;;1.50;;
51292;SDS011;37377;45.186;9.778;2023-05-07T09:24:46;2.92;;;1.50;;
51292;SDS011;37377;45.186;9.778;2023-05-07T09:27:13;2.35;;;1.30;;
51292;SDS011;37377;45.186;9.778;2023-05-07T09:29:43;2.47;;;1.10;;
51292;SDS011;37377;45.186;9.778;2023-05-07T09:32:11;6.38;;;1.40;;
51292;SDS011;37377;45.186;9.778;2023-05-07T09:34:38;5.15;;;1.60;;
51292;SDS011;37377;45.186;9.778;2023-05-07T09:37:06;3.28;;;1.70;;
51292;SDS011;37377;45.186;9.778;2023-05-07T09:39:43;2.05;;;1.50;;
51292;SDS011;37377;45.186;9.778;2023-05-07T09:42:12;2.17;;;1.30;;
51292;SDS011;37377;45.186;9.778;2023-05-07T09:44:45;1.55;;;1.20;;
51292;SDS011;37377;45.186;9.778;2023-05-07T09:47:21;3.88;;;1.20;;
51292;SDS011;37377;45.186;9.778;2023-05-07T09:49:52;2.47;;;0.80;;
51292;SDS011;37377;45.186;9.778;2023-05-07T09:52:22;3.53;;;0.90;;
51292;SDS011;37377;45.186;9.778;2023-05-07T09:54:53;2.17;;;1.98;;
51292;SDS011;37377;45.186;9.778;2023-05-07T09:57:25;4.55;;;1.08;;
51292;SDS011;37377;45.186;9.778;2023-05-07T10:02:26;9.15;;;1.38;;
51292;SDS011;37377;45.186;9.778;2023-05-07T10:04:55;2.28;;;1.00;;
51292;SDS011;37377;45.186;9.778;2023-05-07T10:07:28;3.22;;;1.15;;
51292;SDS011;37377;45.186;9.778;2023-05-07T10:09:59;5.78;;;1.30;;
51292;SDS011;37377;45.186;9.778;2023-05-07T10:12:35;5.18;;;1.20;;
51292;SDS011;37377;45.186;9.778;2023-05-07T10:15:11;1.77;;;1.08;;
51292;SDS011;37377;45.186;9.778;2023-05-07T10:17:41;2.00;;;1.10;;
51292;SDS011;37377;45.186;9.778;2023-05-07T10:20:10;4.10;;;2.08;;
51292;SDS011;37377;45.186;9.778;2023-05-07T10:22:43;5.22;;;1.30;;
51292;SDS011;37377;45.186;9.778;2023-05-07T10:25:34;5.63;;;1.30;;
51292;SDS011;37377;45.186;9.778;2023-05-07T10:28:07;3.25;;;1.15;;
51292;SDS011;37377;45.186;9.778;2023-05-07T10:33:05;5.30;;;0.80;;
51292;SDS011;37377;45.186;9.778;2023-05-07T10:35:38;1.60;;;0.90;;
51292;SDS011;37377;45.186;9.778;2023-05-07T10:38:05;4.05;;;0.93;;
51292;SDS011;37377;45.186;9.778;2023-05-07T10:40:35;1.42;;;0.82;;
51292;SDS011;37377;45.186;9.778;2023-05-07T10:43:03;1.63;;;1.00;;
51292;SDS011;37377;45.186;9.778;2023-05-07T10:46:09;2.40;;;1.15;;
51292;SDS011;37377;45.186;9.778;2023-05-07T10:51:25;3.20;;;1.17;;
51292;SDS011;37377;45.186;9.778;2023-05-07T10:56:42;2.70;;;2.25;;
51292;SDS011;37377;45.186;9.778;2023-05-07T11:02:04;1.45;;;1.00;;
51292;SDS011;37377;45.186;9.778;2023-05-07T11:04:45;1.33;;;0.80;;
51292;SDS011;37377;45.186;9.778;2023-05-07T11:07:33;6.40;;;1.45;;
51292;SDS011;37377;45.186;9.778;2023-05-07T11:10:05;3.95;;;1.98;;
51292;SDS011;37377;45.186;9.778;2023-05-07T11:12:50;6.13;;;2.95;;
51292;SDS011;37377;45.186;9.778;2023-05-07T11:15:35;4.05;;;2.83;;
51292;SDS011;37377;45.186;9.778;2023-05-07T11:18:06;10.98;;;3.08;;
51292;SDS011;37377;45.186;9.778;2023-05-07T11:20:56;5.45;;;3.13;;
51292;SDS011;37377;45.186;9.778;2023-05-07T11:26:44;3.60;;;3.30;;
51292;SDS011;37377;45.186;9.778;2023-05-07T11:29:15;4.70;;;3.55;;
51292;SDS011;37377;45.186;9.778;2023-05-07T11:34:11;4.72;;;2.97;;
51292;SDS011;37377;45.186;9.778;2023-05-07T11:36:41;2.55;;;2.33;;
51292;SDS011;37377;45.186;9.778;2023-05-07T11:39:31;5.28;;;2.90;;
51292;SDS011;37377;45.186;9.778;2023-05-07T11:41:59;3.58;;;2.92;;
51292;SDS011;37377;45.186;9.778;2023-05-07T11:44:39;6.53;;;2.58;;
51292;SDS011;37377;45.186;9.778;2023-05-07T11:47:06;2.38;;;1.67;;
51292;SDS011;37377;45.186;9.778;2023-05-07T11:49:33;4.10;;;2.50;;
51292;SDS011;37377;45.186;9.778;2023-05-07T11:52:00;3.25;;;1.80;;
51292;SDS011;37377;45.186;9.778;2023-05-07T11:54:34;6.25;;;1.55;;
51292;SDS011;37377;45.186;9.778;2023-05-07T11:57:01;3.85;;;1.98;;
51292;SDS011;37377;45.186;9.778;2023-05-07T11:59:28;5.75;;;1.50;;
51292;SDS011;37377;45.186;9.778;2023-05-07T12:01:58;4.55;;;1.98;;
51292;SDS011;37377;45.186;9.778;2023-05-07T12:04:25;2.15;;;1.70;;
51292;SDS011;37377;45.186;9.778;2023-05-07T12:06:55;3.65;;;1.42;;
51292;SDS011;37377;45.186;9.778;2023-05-07T12:09:22;3.78;;;1.77;;
51292;SDS011;37377;45.186;9.778;2023-05-07T12:11:49;4.70;;;2.00;;
51292;SDS011;37377;45.186;9.778;2023-05-07T12:14:17;3.30;;;1.67;;
51292;SDS011;37377;45.186;9.778;2023-05-07T12:16:44;2.97;;;2.15;;
51292;SDS011;37377;45.186;9.778;2023-05-07T12:19:11;2.72;;;1.85;;
51292;SDS011;37377;45.186;9.778;2023-05-07T12:21:41;5.55;;;1.85;;
51292;SDS011;37377;45.186;9.778;2023-05-07T12:24:08;2.08;;;1.58;;
51292;SDS011;37377;45.186;9.778;2023-05-07T12:26:38;4.95;;;1.73;;
51292;SDS011;37377;45.186;9.778;2023-05-07T12:29:07;2.42;;;1.95;;
51292;SDS011;37377;45.186;9.778;2023-05-07T12:31:34;1.90;;;1.48;;
51292;SDS011;37377;45.186;9.778;2023-05-07T12:34:01;2.33;;;1.60;;
51292;SDS011;37377;45.186;9.778;2023-05-07T12:36:36;2.92;;;2.63;;
51292;SDS011;37377;45.186;9.778;2023-05-07T12:39:03;4.22;;;1.70;;
51292;SDS011;37377;45.186;9.778;2023-05-07T12:41:30;4.22;;;1.90;;
51292;SDS011;37377;45.186;9.778;2023-05-07T12:44:03;4.22;;;1.98;;
51292;SDS011;37377;45.186;9.778;2023-05-07T12:46:38;6.40;;;1.80;;
51292;SDS011;37377;45.186;9.778;2023-05-07T12:49:20;2.50;;;1.85;;
51292;SDS011;37377;45.186;9.778;2023-05-07T12:51:50;5.03;;;1.70;;
51292;SDS011;37377;45.186;9.778;2023-05-07T12:54:33;2.53;;;1.80;;
51292;SDS011;37377;45.186;9.778;2023-05-07T12:57:04;6.40;;;1.65;;
51292;SDS011;37377;45.186;9.778;2023-05-07T12:59:41;3.72;;;1.60;;
51292;SDS011;37377;45.186;9.778;2023-05-07T13:02:08;3.58;;;2.10;;
51292;SDS011;37377;45.186;9.778;2023-05-07T13:04:37;5.75;;;1.60;;
51292;SDS011;37377;45.186;9.778;2023-05-07T13:07:04;2.55;;;2.30;;
51292;SDS011;37377;45.186;9.778;2023-05-07T13:09:31;4.35;;;2.70;;
51292;SDS011;37377;45.186;9.778;2023-05-07T13:11:58;2.90;;;2.20;;
51292;SDS011;37377;45.186;9.778;2023-05-07T13:14:28;4.05;;;2.38;;
51292;SDS011;37377;45.186;9.778;2023-05-07T13:16:57;5.65;;;2.13;;
51292;SDS011;37377;45.186;9.778;2023-05-07T13:19:51;5.00;;;2.20;;
51292;SDS011;37377;45.186;9.778;2023-05-07T13:22:21;2.58;;;1.88;;
51292;SDS011;37377;45.186;9.778;2023-05-07T13:24:48;5.00;;;1.88;;
51292;SDS011;37377;45.186;9.778;2023-05-07T13:27:15;7.50;;;2.33;;
51292;SDS011;37377;45.186;9.778;2023-05-07T13:29:42;3.78;;;2.22;;
51292;SDS011;37377;45.186;9.778;2023-05-07T13:32:09;6.63;;;1.67;;
51292;SDS011;37377;45.186;9.778;2023-05-07T13:34:36;6.20;;;1.77;;
51292;SDS011;37377;45.186;9.778;2023-05-07T13:37:03;5.18;;;1.85;;
51292;SDS011;37377;45.186;9.778;2023-05-07T13:39:30;7.47;;;2.13;;
51292;SDS011;37377;45.186;9.778;2023-05-07T13:41:58;5.15;;;1.70;;
51292;SDS011;37377;45.186;9.778;2023-05-07T13:44:24;2.05;;;1.75;;
51292;SDS011;37377;45.186;9.778;2023-05-07T13:46:51;3.55;;;1.52;;
51292;SDS011;37377;45.186;9.778;2023-05-07T13:49:18;1.67;;;1.40;;
51292;SDS011;37377;45.186;9.778;2023-05-07T13:51:44;1.80;;;1.60;;
51292;SDS011;37377;45.186;9.778;2023-05-07T13:54:11;3.40;;;1.58;;
51292;SDS011;37377;45.186;9.778;2023-05-07T13:56:38;5.72;;;3.95;;
51292;SDS011;37377;45.186;9.778;2023-05-07T13:59:05;4.03;;;1.52;;
51292;SDS011;37377;45.186;9.778;2023-05-07T14:01:32;1.60;;;1.45;;
51292;SDS011;37377;45.186;9.778;2023-05-07T14:03:59;2.75;;;1.70;;
51292;SDS011;37377;45.186;9.778;2023-05-07T14:06:26;2.15;;;1.48;;
51292;SDS011;37377;45.186;9.778;2023-05-07T14:08:53;2.15;;;1.50;;
51292;SDS011;37377;45.186;9.778;2023-05-07T14:11:20;4.72;;;1.60;;
51292;SDS011;37377;45.186;9.778;2023-05-07T14:13:47;1.55;;;1.40;;
51292;SDS011;37377;45.186;9.778;2023-05-07T14:16:14;5.55;;;1.63;;
51292;SDS011;37377;45.186;9.778;2023-05-07T14:18:41;3.72;;;1.50;;
51292;SDS011;37377;45.186;9.778;2023-05-07T14:21:08;3.35;;;2.33;;
51292;SDS011;37377;45.186;9.778;2023-05-07T14:23:36;3.47;;;1.92;;
51292;SDS011;37377;45.186;9.778;2023-05-07T14:26:03;4.03;;;1.77;;
51292;SDS011;37377;45.186;9.778;2023-05-07T14:28:30;4.32;;;1.80;;
51292;SDS011;37377;45.186;9.778;2023-05-07T14:30:56;2.85;;;1.73;;
51292;SDS011;37377;45.186;9.778;2023-05-07T14:33:23;3.20;;;2.70;;
51292;SDS011;37377;45.186;9.778;2023-05-07T14:35:50;2.53;;;1.67;;
51292;SDS011;37377;45.186;9.778;2023-05-07T14:38:17;2.45;;;1.55;;
51292;SDS011;37377;45.186;9.778;2023-05-07T14:40:44;6.93;;;1.58;;
51292;SDS011;37377;45.186;9.778;2023-05-07T14:43:11;5.65;;;1.80;;
51292;SDS011;37377;45.186;9.778;2023-05-07T14:45:38;2.05;;;1.85;;
51292;SDS011;37377;45.186;9.778;2023-05-07T14:48:04;2.90;;;2.20;;
51292;SDS011;37377;45.186;9.778;2023-05-07T14:50:32;8.93;;;4.45;;
51292;SDS011;37377;45.186;9.778;2023-05-07T14:52:58;2.75;;;2.20;;
51292;SDS011;37377;45.186;9.778;2023-05-07T14:55:25;1.80;;;1.67;;
51292;SDS011;37377;45.186;9.778;2023-05-07T14:57:52;2.03;;;1.75;;
51292;SDS011;37377;45.186;9.778;2023-05-07T15:00:25;6.40;;;2.83;;
51292;SDS011;37377;45.186;9.778;2023-05-07T15:03:04;2.50;;;1.80;;
51292;SDS011;37377;45.186;9.778;2023-05-07T15:05:45;4.05;;;1.83;;
51292;SDS011;37377;45.186;9.778;2023-05-07T15:08:21;7.25;;;1.50;;
51292;SDS011;37377;45.186;9.778;2023-05-07T15:10:51;5.30;;;1.85;;
51292;SDS011;37377;45.186;9.778;2023-05-07T15:13:18;3.03;;;1.65;;
51292;SDS011;37377;45.186;9.778;2023-05-07T15:15:44;9.50;;;2.38;;
51292;SDS011;37377;45.186;9.778;2023-05-07T15:18:11;2.20;;;1.63;;
51292;SDS011;37377;45.186;9.778;2023-05-07T15:20:38;4.65;;;2.20;;
51292;SDS011;37377;45.186;9.778;2023-05-07T15:23:05;4.40;;;1.50;;
51292;SDS011;37377;45.186;9.778;2023-05-07T15:25:32;2.10;;;1.63;;
51292;SDS011;37377;45.186;9.778;2023-05-07T15:28:00;3.80;;;2.17;;
51292;SDS011;37377;45.186;9.778;2023-05-07T15:30:27;2.47;;;1.40;;
51292;SDS011;37377;45.186;9.778;2023-05-07T15:32:54;6.70;;;1.85;;
51292;SDS011;37377;45.186;9.778;2023-05-07T15:35:23;5.75;;;2.20;;
51292;SDS011;37377;45.186;9.778;2023-05-07T15:37:52;1.77;;;1.45;;
51292;SDS011;37377;45.186;9.778;2023-05-07T15:40:20;2.95;;;1.60;;